sensor_id;sensor_type;location;lat;lon;timestamp;pressure;altitude;pressure_sealevel;temperature;humidity
65359;BME280;52491;45.900;6.346;2024-03-06T00:01:04;93818.47;;;22.13;31.81
65359;BME280;52491;45.900;6.346;2024-03-06T00:03:29;93815.47;;;22.09;31.75
65359;BME280;52491;45.900;6.346;2024-03-06T00:05:55;93821.63;;;22.10;31.86
65359;BME280;52491;45.900;6.346;2024-03-06T00:08:21;93822.41;;;22.10;31.70
65359;BME280;52491;45.900;6.346;2024-03-06T00:10:47;93824.75;;;22.07;31.72
65359;BME280;52491;45.900;6.346;2024-03-06T00:13:13;93831.41;;;22.09;31.66
65359;BME280;52491;45.900;6.346;2024-03-06T00:15:38;93821.84;;;22.08;31.64
65359;BME280;52491;45.900;6.346;2024-03-06T00:18:04;93814.94;;;22.07;31.62
65359;BME280;52491;45.900;6.346;2024-03-06T00:20:30;93832.72;;;22.07;31.54
65359;BME280;52491;45.900;6.346;2024-03-06T00:22:56;93831.13;;;22.06;31.63
65359;BME280;52491;45.900;6.346;2024-03-06T00:25:22;93837.22;;;22.06;31.53
65359;BME280;52491;45.900;6.346;2024-03-06T00:27:47;93830.03;;;22.02;31.50
65359;BME280;52491;45.900;6.346;2024-03-06T00:30:13;93829.75;;;22.03;31.50
65359;BME280;52491;45.900;6.346;2024-03-06T00:32:41;93824.94;;;22.00;31.58
65359;BME280;52491;45.900;6.346;2024-03-06T00:35:07;93828.66;;;21.99;31.50
65359;BME280;52491;45.900;6.346;2024-03-06T00:37:33;93835.00;;;21.98;31.51
65359;BME280;52491;45.900;6.346;2024-03-06T00:39:59;93832.13;;;22.00;31.56
65359;BME280;52491;45.900;6.346;2024-03-06T00:42:25;93839.03;;;22.01;31.50
65359;BME280;52491;45.900;6.346;2024-03-06T00:44:50;93836.63;;;21.99;31.46
65359;BME280;52491;45.900;6.346;2024-03-06T00:47:16;93835.84;;;21.99;31.38
65359;BME280;52491;45.900;6.346;2024-03-06T00:49:42;93841.13;;;21.99;31.54
65359;BME280;52491;45.900;6.346;2024-03-06T00:52:07;93836.28;;;21.96;31.41
65359;BME280;52491;45.900;6.346;2024-03-06T00:54:35;93841.13;;;21.99;31.44
65359;BME280;52491;45.900;6.346;2024-03-06T00:57:01;93844.81;;;21.98;31.52
65359;BME280;52491;45.900;6.346;2024-03-06T00:59:27;93845.63;;;21.98;31.45
65359;BME280;52491;45.900;6.346;2024-03-06T01:01:53;93850.13;;;21.98;31.31
65359;BME280;52491;45.900;6.346;2024-03-06T01:04:22;93845.09;;;21.96;31.30
65359;BME280;52491;45.900;6.346;2024-03-06T01:06:48;93847.75;;;21.96;31.18
65359;BME280;52491;45.900;6.346;2024-03-06T01:09:14;93839.22;;;21.94;31.40
65359;BME280;52491;45.900;6.346;2024-03-06T01:11:40;93845.31;;;21.95;31.44
65359;BME280;52491;45.900;6.346;2024-03-06T01:14:06;93854.59;;;21.92;31.27
65359;BME280;52491;45.900;6.346;2024-03-06T01:16:32;93847.97;;;21.95;31.47
65359;BME280;52491;45.900;6.346;2024-03-06T01:18:57;93847.69;;;21.91;31.26
65359;BME280;52491;45.900;6.346;2024-03-06T01:21:23;93851.69;;;21.94;31.27
65359;BME280;52491;45.900;6.346;2024-03-06T01:23:49;93850.63;;;21.95;31.59
65359;BME280;52491;45.900;6.346;2024-03-06T01:26:14;93850.34;;;21.91;31.39
65359;BME280;52491;45.900;6.346;2024-03-06T01:28:40;93847.13;;;21.89;31.24
65359;BME280;52491;45.900;6.346;2024-03-06T01:31:06;93849.53;;;21.90;31.28
65359;BME280;52491;45.900;6.346;2024-03-06T01:33:32;93856.19;;;21.93;31.19
65359;BME280;52491;45.900;6.346;2024-03-06T01:35:57;93853.78;;;21.92;31.15
65359;BME280;52491;45.900;6.346;2024-03-06T01:38:23;93857.81;;;21.94;31.24
65359;BME280;52491;45.900;6.346;2024-03-06T01:40:49;93852.97;;;21.91;31.04
65359;BME280;52491;45.900;6.346;2024-03-06T01:45:42;93861.50;;;21.93;31.21
65359;BME280;52491;45.900;6.346;2024-03-06T01:48:07;93845.53;;;21.88;31.15
65359;BME280;52491;45.900;6.346;2024-03-06T01:50:34;93846.63;;;21.92;31.17
65359;BME280;52491;45.900;6.346;2024-03-06T01:53:00;93846.63;;;21.92;31.10
65359;BME280;52491;45.900;6.346;2024-03-06T01:55:25;93846.06;;;21.90;31.16
65359;BME280;52491;45.900;6.346;2024-03-06T01:57:51;93847.69;;;21.91;30.93
65359;BME280;52491;45.900;6.346;2024-03-06T02:00:17;93853.56;;;21.93;31.01
65359;BME280;52491;45.900;6.346;2024-03-06T02:02:43;93852.19;;;21.90;31.08
65359;BME280;52491;45.900;6.346;2024-03-06T02:05:09;93849.28;;;21.92;31.12
65359;BME280;52491;45.900;6.346;2024-03-06T02:07:36;93850.91;;;21.93;30.92
65359;BME280;52491;45.900;6.346;2024-03-06T02:10:04;93843.97;;;21.92;30.87
65359;BME280;52491;45.900;6.346;2024-03-06T02:12:29;93851.69;;;21.94;31.04
65359;BME280;52491;45.900;6.346;2024-03-06T02:14:55;93847.97;;;21.95;30.96
65359;BME280;52491;45.900;6.346;2024-03-06T02:17:21;93847.41;;;21.93;30.86
65359;BME280;52491;45.900;6.346;2024-03-06T02:19:47;93838.91;;;21.90;30.69
65359;BME280;52491;45.900;6.346;2024-03-06T02:22:13;93840.28;;;21.93;30.79
65359;BME280;52491;45.900;6.346;2024-03-06T02:24:44;93841.31;;;21.92;30.81
65359;BME280;52491;45.900;6.346;2024-03-06T02:27:10;93841.88;;;21.94;30.94
65359;BME280;52491;45.900;6.346;2024-03-06T02:29:36;93843.72;;;21.94;30.80
65359;BME280;52491;45.900;6.346;2024-03-06T02:32:03;93850.63;;;21.95;30.82
65359;BME280;52491;45.900;6.346;2024-03-06T02:34:29;93848.25;;;21.93;30.86
65359;BME280;52491;45.900;6.346;2024-03-06T02:36:55;93845.81;;;21.92;30.68
65359;BME280;52491;45.900;6.346;2024-03-06T02:39:22;93834.34;;;21.86;30.71
65359;BME280;52491;45.900;6.346;2024-03-06T02:41:47;93845.81;;;21.92;30.64
65359;BME280;52491;45.900;6.346;2024-03-06T02:44:14;93849.84;;;21.94;30.82
65359;BME280;52491;45.900;6.346;2024-03-06T02:46:41;93846.63;;;21.92;30.61
65359;BME280;52491;45.900;6.346;2024-03-06T02:49:06;93855.16;;;21.94;30.55
65359;BME280;52491;45.900;6.346;2024-03-06T02:51:32;93854.09;;;21.95;30.56
65359;BME280;52491;45.900;6.346;2024-03-06T02:53:58;93851.69;;;21.94;30.64
65359;BME280;52491;45.900;6.346;2024-03-06T02:56:23;93854.59;;;21.92;30.46
65359;BME280;52491;45.900;6.346;2024-03-06T02:58:49;93862.03;;;21.95;30.90
65359;BME280;52491;45.900;6.346;2024-03-06T03:01:15;93856.19;;;21.93;30.57
65359;BME280;52491;45.900;6.346;2024-03-06T03:03:41;93861.25;;;21.95;30.48
65359;BME280;52491;45.900;6.346;2024-03-06T03:06:07;93851.13;;;21.92;30.39
65359;BME280;52491;45.900;6.346;2024-03-06T03:08:33;93858.84;;;21.93;30.52
65359;BME280;52491;45.900;6.346;2024-03-06T03:10:59;93866.00;;;21.93;30.49
65359;BME280;52491;45.900;6.346;2024-03-06T03:13:24;93859.31;;;21.90;30.45
65359;BME280;52491;45.900;6.346;2024-03-06T03:15:50;93853.78;;;21.92;30.56
65359;BME280;52491;45.900;6.346;2024-03-06T03:18:17;93864.16;;;21.93;30.38
65359;BME280;52491;45.900;6.346;2024-03-06T03:20:43;93862.31;;;21.94;30.17
65359;BME280;52491;45.900;6.346;2024-03-06T03:23:09;93864.97;;;21.94;30.51
65359;BME280;52491;45.900;6.346;2024-03-06T03:25:38;93870.28;;;21.94;30.48
65359;BME280;52491;45.900;6.346;2024-03-06T03:28:04;93874.53;;;21.95;30.42
65359;BME280;52491;45.900;6.346;2024-03-06T03:30:30;93857.00;;;21.94;30.43
65359;BME280;52491;45.900;6.346;2024-03-06T03:32:57;93862.31;;;21.94;30.34
65359;BME280;52491;45.900;6.346;2024-03-06T03:35:23;93863.09;;;21.94;30.29
65359;BME280;52491;45.900;6.346;2024-03-06T03:37:51;93860.44;;;21.94;30.45
65359;BME280;52491;45.900;6.346;2024-03-06T03:40:18;93866.81;;;21.93;30.28
65359;BME280;52491;45.900;6.346;2024-03-06T03:42:44;93862.03;;;21.95;30.28
65359;BME280;52491;45.900;6.346;2024-03-06T03:45:10;93865.75;;;21.94;30.28
65359;BME280;52491;45.900;6.346;2024-03-06T03:47:35;93867.06;;;21.92;30.23
65359;BME280;52491;45.900;6.346;2024-03-06T03:50:01;93871.06;;;21.94;30.37
65359;BME280;52491;45.900;6.346;2024-03-06T03:52:28;93864.97;;;21.94;30.34
65359;BME280;52491;45.900;6.346;2024-03-06T03:54:53;93871.06;;;21.94;30.28
65359;BME280;52491;45.900;6.346;2024-03-06T03:57:19;93869.22;;;21.95;30.32
65359;BME280;52491;45.900;6.346;2024-03-06T03:59:45;93877.19;;;21.95;30.16
65359;BME280;52491;45.900;6.346;2024-03-06T04:02:10;93867.84;;;21.92;30.16
65359;BME280;52491;45.900;6.346;2024-03-06T04:04:36;93863.59;;;21.91;30.28
65359;BME280;52491;45.900;6.346;2024-03-06T04:07:02;93861.75;;;21.92;29.91
65359;BME280;52491;45.900;6.346;2024-03-06T04:09:28;93876.38;;;21.94;30.19
65359;BME280;52491;45.900;6.346;2024-03-06T04:11:53;93877.97;;;21.95;30.17
65359;BME280;52491;45.900;6.346;2024-03-06T04:14:19;93871.88;;;21.95;30.43
65359;BME280;52491;45.900;6.346;2024-03-06T04:16:46;93873.72;;;21.94;30.28
65359;BME280;52491;45.900;6.346;2024-03-06T04:19:11;93883.84;;;21.97;30.24
65359;BME280;52491;45.900;6.346;2024-03-06T04:21:46;93877.75;;;21.97;30.02
65359;BME280;52491;45.900;6.346;2024-03-06T04:24:12;93880.88;;;21.94;30.11
65359;BME280;52491;45.900;6.346;2024-03-06T04:26:37;93870.50;;;21.92;30.25
65359;BME280;52491;45.900;6.346;2024-03-06T04:29:03;93883.28;;;21.95;30.19
65359;BME280;52491;45.900;6.346;2024-03-06T04:31:29;93879.03;;;21.94;30.34
65359;BME280;52491;45.900;6.346;2024-03-06T04:33:54;93881.19;;;21.97;30.27
65359;BME280;52491;45.900;6.346;2024-03-06T04:36:20;93879.34;;;21.98;30.05
65359;BME280;52491;45.900;6.346;2024-03-06T04:38:46;93872.66;;;21.95;30.26
65359;BME280;52491;45.900;6.346;2024-03-06T04:41:11;93878.78;;;21.96;30.19
65359;BME280;52491;45.900;6.346;2024-03-06T04:43:37;93883.59;;;21.99;30.24
65359;BME280;52491;45.900;6.346;2024-03-06T04:46:03;93884.06;;;21.96;30.11
65359;BME280;52491;45.900;6.346;2024-03-06T04:48:30;93887.84;;;22.00;30.18
65359;BME280;52491;45.900;6.346;2024-03-06T04:50:55;93890.25;;;22.01;30.25
65359;BME280;52491;45.900;6.346;2024-03-06T04:53:21;93893.97;;;22.00;30.07
65359;BME280;52491;45.900;6.346;2024-03-06T04:55:47;93888.91;;;21.99;30.25
65359;BME280;52491;45.900;6.346;2024-03-06T04:58:13;93880.88;;;21.94;30.16
65359;BME280;52491;45.900;6.346;2024-03-06T05:00:39;93898.22;;;22.01;30.17
65359;BME280;52491;45.900;6.346;2024-03-06T05:03:04;93905.94;;;22.03;30.07
65359;BME280;52491;45.900;6.346;2024-03-06T05:05:30;93911.25;;;22.03;30.08
65359;BME280;52491;45.900;6.346;2024-03-06T05:07:56;93901.13;;;22.00;30.19
65359;BME280;52491;45.900;6.346;2024-03-06T05:10:22;93905.38;;;22.01;30.30
65359;BME280;52491;45.900;6.346;2024-03-06T05:12:47;93906.19;;;22.01;30.24
65359;BME280;52491;45.900;6.346;2024-03-06T05:15:16;93912.34;;;22.07;30.35
65359;BME280;52491;45.900;6.346;2024-03-06T05:17:42;93912.63;;;22.05;30.27
65359;BME280;52491;45.900;6.346;2024-03-06T05:20:09;93920.59;;;22.05;30.52
65359;BME280;52491;45.900;6.346;2024-03-06T05:22:35;93922.44;;;22.05;30.45
65359;BME280;52491;45.900;6.346;2024-03-06T05:25:02;93920.59;;;22.05;30.57
65359;BME280;52491;45.900;6.346;2024-03-06T05:27:27;93921.31;;;22.01;30.76
65359;BME280;52491;45.900;6.346;2024-03-06T05:29:53;93927.97;;;22.03;30.69
65359;BME280;52491;45.900;6.346;2024-03-06T05:32:20;93924.75;;;22.01;30.37
65359;BME280;52491;45.900;6.346;2024-03-06T05:34:45;93928.53;;;22.05;30.59
65359;BME280;52491;45.900;6.346;2024-03-06T05:37:11;93926.38;;;22.02;30.71
65359;BME280;52491;45.900;6.346;2024-03-06T05:39:37;93930.63;;;22.03;30.64
65359;BME280;52491;45.900;6.346;2024-03-06T05:42:03;93934.09;;;22.04;30.64
65359;BME280;52491;45.900;6.346;2024-03-06T05:44:31;93936.75;;;22.04;30.74
65359;BME280;52491;45.900;6.346;2024-03-06T05:46:58;93934.66;;;22.06;30.71
65359;BME280;52491;45.900;6.346;2024-03-06T05:49:24;93940.53;;;22.08;30.74
65359;BME280;52491;45.900;6.346;2024-03-06T05:51:51;93942.91;;;22.09;30.86
65359;BME280;52491;45.900;6.346;2024-03-06T05:54:16;93938.09;;;22.06;30.96
65359;BME280;52491;45.900;6.346;2024-03-06T05:56:42;93949.06;;;22.10;31.18
65359;BME280;52491;45.900;6.346;2024-03-06T05:59:08;93949.84;;;22.10;31.18
65359;BME280;52491;45.900;6.346;2024-03-06T06:01:34;93942.13;;;22.09;31.24
65359;BME280;52491;45.900;6.346;2024-03-06T06:04:01;93949.28;;;22.08;31.10
65359;BME280;52491;45.900;6.346;2024-03-06T06:06:27;93949.53;;;22.07;30.76
65359;BME280;52491;45.900;6.346;2024-03-06T06:08:52;93949.53;;;22.07;30.69
65359;BME280;52491;45.900;6.346;2024-03-06T06:11:18;93956.38;;;22.03;30.49
65359;BME280;52491;45.900;6.346;2024-03-06T06:13:45;93960.41;;;22.05;30.48
65359;BME280;52491;45.900;6.346;2024-03-06T06:16:10;93963.06;;;22.05;30.62
65359;BME280;52491;45.900;6.346;2024-03-06T06:18:36;93961.47;;;22.04;30.63
65359;BME280;52491;45.900;6.346;2024-03-06T06:21:02;93963.56;;;22.02;30.64
65359;BME280;52491;45.900;6.346;2024-03-06T06:23:32;93962.25;;;22.05;30.67
65359;BME280;52491;45.900;6.346;2024-03-06T06:25:58;93965.44;;;22.07;30.71
65359;BME280;52491;45.900;6.346;2024-03-06T06:28:24;93970.22;;;22.05;30.73
65359;BME280;52491;45.900;6.346;2024-03-06T06:30:50;93975.03;;;22.08;30.67
65359;BME280;52491;45.900;6.346;2024-03-06T06:33:18;93979.28;;;22.09;30.64
65359;BME280;52491;45.900;6.346;2024-03-06T06:35:44;93980.91;;;22.10;30.91
65359;BME280;52491;45.900;6.346;2024-03-06T06:38:10;93972.69;;;22.11;30.84
65359;BME280;52491;45.900;6.346;2024-03-06T06:40:36;93976.97;;;22.12;30.63
65359;BME280;52491;45.900;6.346;2024-03-06T06:43:01;93978.00;;;22.11;30.68
65359;BME280;52491;45.900;6.346;2024-03-06T06:45:27;93978.81;;;22.12;30.82
65359;BME280;52491;45.900;6.346;2024-03-06T06:47:53;93982.28;;;22.12;30.82
65359;BME280;52491;45.900;6.346;2024-03-06T06:50:19;93985.16;;;22.11;31.06
65359;BME280;52491;45.900;6.346;2024-03-06T06:52:48;93984.09;;;22.12;30.84
65359;BME280;52491;45.900;6.346;2024-03-06T06:55:14;93994.50;;;22.13;31.00
65359;BME280;52491;45.900;6.346;2024-03-06T06:57:39;93992.34;;;22.10;30.90
65359;BME280;52491;45.900;6.346;2024-03-06T07:00:06;93991.84;;;22.13;30.84
65359;BME280;52491;45.900;6.346;2024-03-06T07:02:33;93982.75;;;22.09;30.93
65359;BME280;52491;45.900;6.346;2024-03-06T07:04:59;93981.72;;;22.10;31.04
65359;BME280;52491;45.900;6.346;2024-03-06T07:07:24;93983.81;;;22.08;30.98
65359;BME280;52491;45.900;6.346;2024-03-06T07:09:50;93993.44;;;22.15;30.95
65359;BME280;52491;45.900;6.346;2024-03-06T07:12:16;93992.06;;;22.12;31.07
65359;BME280;52491;45.900;6.346;2024-03-06T07:14:41;93990.72;;;22.09;30.97
65359;BME280;52491;45.900;6.346;2024-03-06T07:17:07;93997.16;;;22.13;31.09
65359;BME280;52491;45.900;6.346;2024-03-06T07:19:32;93997.66;;;22.10;31.00
65359;BME280;52491;45.900;6.346;2024-03-06T07:21:58;94012.81;;;22.15;30.93
65359;BME280;52491;45.900;6.346;2024-03-06T07:24:24;94008.34;;;22.16;30.99
65359;BME280;52491;45.900;6.346;2024-03-06T07:26:49;94008.00;;;22.12;31.08
65359;BME280;52491;45.900;6.346;2024-03-06T07:29:15;94001.91;;;22.11;30.95
65359;BME280;52491;45.900;6.346;2024-03-06T07:31:41;94004.56;;;22.11;31.09
65359;BME280;52491;45.900;6.346;2024-03-06T07:34:07;94006.72;;;22.15;31.08
65359;BME280;52491;45.900;6.346;2024-03-06T07:36:34;94009.13;;;22.16;30.92
65359;BME280;52491;45.900;6.346;2024-03-06T07:39:01;94011.78;;;22.16;31.00
65359;BME280;52491;45.900;6.346;2024-03-06T07:41:27;94010.16;;;22.15;30.99
65359;BME280;52491;45.900;6.346;2024-03-06T07:43:53;94006.19;;;22.12;31.02
65359;BME280;52491;45.900;6.346;2024-03-06T07:46:18;94018.97;;;22.16;30.99
65359;BME280;52491;45.900;6.346;2024-03-06T07:48:44;94006.19;;;22.12;30.96
65359;BME280;52491;45.900;6.346;2024-03-06T07:51:10;94004.81;;;22.10;31.02
65359;BME280;52491;45.900;6.346;2024-03-06T07:53:35;94015.47;;;22.15;30.95
65359;BME280;52491;45.900;6.346;2024-03-06T07:56:03;94012.28;;;22.13;31.01
65359;BME280;52491;45.900;6.346;2024-03-06T07:58:29;94010.44;;;22.13;31.09
65359;BME280;52491;45.900;6.346;2024-03-06T08:00:54;94019.75;;;22.16;30.92
65359;BME280;52491;45.900;6.346;2024-03-06T08:03:23;94017.91;;;22.17;31.01
65359;BME280;52491;45.900;6.346;2024-03-06T08:05:51;94017.34;;;22.15;31.00
65359;BME280;52491;45.900;6.346;2024-03-06T08:08:21;94016.31;;;22.16;30.96
65359;BME280;52491;45.900;6.346;2024-03-06T08:10:47;94019.75;;;22.16;30.89
65359;BME280;52491;45.900;6.346;2024-03-06T08:13:14;94019.19;;;22.14;31.04
65359;BME280;52491;45.900;6.346;2024-03-06T08:15:39;94021.16;;;22.19;30.96
65359;BME280;52491;45.900;6.346;2024-03-06T08:18:06;94017.59;;;22.13;30.89
65359;BME280;52491;45.900;6.346;2024-03-06T08:20:32;94025.66;;;22.18;31.03
65359;BME280;52491;45.900;6.346;2024-03-06T08:22:58;94024.19;;;22.10;31.04
65359;BME280;52491;45.900;6.346;2024-03-06T08:25:24;94024.13;;;22.05;31.11
65359;BME280;52491;45.900;6.346;2024-03-06T08:27:50;94030.22;;;22.06;31.11
65359;BME280;52491;45.900;6.346;2024-03-06T08:30:16;94025.72;;;22.06;31.03
65359;BME280;52491;45.900;6.346;2024-03-06T08:32:41;94028.88;;;22.03;31.12
65359;BME280;52491;45.900;6.346;2024-03-06T08:35:10;94023.81;;;22.02;31.24
65359;BME280;52491;45.900;6.346;2024-03-06T08:37:37;94026.78;;;22.05;31.22
65359;BME280;52491;45.900;6.346;2024-03-06T08:40:05;94027.84;;;22.04;31.08
65359;BME280;52491;45.900;6.346;2024-03-06T08:42:30;94026.78;;;22.05;31.20
65359;BME280;52491;45.900;6.346;2024-03-06T08:44:57;94022.44;;;21.99;31.18
65359;BME280;52491;45.900;6.346;2024-03-06T08:47:23;94030.22;;;22.06;31.04
65359;BME280;52491;45.900;6.346;2024-03-06T08:49:49;94029.91;;;22.02;31.24
65359;BME280;52491;45.900;6.346;2024-03-06T08:52:15;94027.09;;;22.09;30.97
65359;BME280;52491;45.900;6.346;2024-03-06T08:54:41;94032.25;;;22.16;31.07
65359;BME280;52491;45.900;6.346;2024-03-06T08:57:07;94031.97;;;22.17;30.99
65359;BME280;52491;45.900;6.346;2024-03-06T08:59:34;94033.03;;;22.16;30.95
65359;BME280;52491;45.900;6.346;2024-03-06T09:04:38;94038.69;;;22.20;31.09
65359;BME280;52491;45.900;6.346;2024-03-06T09:07:04;94040.53;;;22.19;30.98
65359;BME280;52491;45.900;6.346;2024-03-06T09:09:30;94030.38;;;22.16;31.06
65359;BME280;52491;45.900;6.346;2024-03-06T09:11:55;94023.72;;;22.13;30.94
65359;BME280;52491;45.900;6.346;2024-03-06T09:14:21;94030.72;;;22.20;31.04
65359;BME280;52491;45.900;6.346;2024-03-06T09:16:48;94037.63;;;22.21;30.99
65359;BME280;52491;45.900;6.346;2024-03-06T09:19:14;94034.63;;;22.17;30.96
65359;BME280;52491;45.900;6.346;2024-03-06T09:21:39;94040.28;;;22.21;31.05
65359;BME280;52491;45.900;6.346;2024-03-06T09:24:05;94035.22;;;22.19;31.28
65359;BME280;52491;45.900;6.346;2024-03-06T09:26:31;94038.69;;;22.20;31.01
65359;BME280;52491;45.900;6.346;2024-03-06T09:28:57;94031.28;;;22.22;30.98
65359;BME280;52491;45.900;6.346;2024-03-06T09:31:22;94035.78;;;22.21;30.96
65359;BME280;52491;45.900;6.346;2024-03-06T09:33:48;94035.78;;;22.21;30.92
65359;BME280;52491;45.900;6.346;2024-03-06T09:36:14;94036.03;;;22.20;30.98
65359;BME280;52491;45.900;6.346;2024-03-06T09:38:40;94033.38;;;22.20;30.93
65359;BME280;52491;45.900;6.346;2024-03-06T09:41:07;94038.19;;;22.23;31.02
65359;BME280;52491;45.900;6.346;2024-03-06T09:43:33;94032.31;;;22.21;30.98
65359;BME280;52491;45.900;6.346;2024-03-06T09:45:59;94039.00;;;22.23;31.03
65359;BME280;52491;45.900;6.346;2024-03-06T09:48:28;94031.50;;;22.20;31.14
65359;BME280;52491;45.900;6.346;2024-03-06T09:51:02;94034.50;;;22.24;31.05
65359;BME280;52491;45.900;6.346;2024-03-06T09:53:28;94032.88;;;22.23;31.10
65359;BME280;52491;45.900;6.346;2024-03-06T09:55:56;94031.84;;;22.24;31.03
65359;BME280;52491;45.900;6.346;2024-03-06T09:58:23;94026.22;;;22.20;30.97
65359;BME280;52491;45.900;6.346;2024-03-06T10:00:50;94022.53;;;22.21;30.88
65359;BME280;52491;45.900;6.346;2024-03-06T10:03:17;94027.56;;;22.23;31.17
65359;BME280;52491;45.900;6.346;2024-03-06T10:05:42;94030.00;;;22.24;30.98
65359;BME280;52491;45.900;6.346;2024-03-06T10:08:09;94034.25;;;22.25;30.96
65359;BME280;52491;45.900;6.346;2024-03-06T10:10:35;94029.19;;;22.24;30.94
65359;BME280;52491;45.900;6.346;2024-03-06T10:13:02;94025.97;;;22.22;31.16
65359;BME280;52491;45.900;6.346;2024-03-06T10:15:28;94016.31;;;22.16;31.11
65359;BME280;52491;45.900;6.346;2024-03-06T10:18:12;94024.91;;;22.23;31.07
65359;BME280;52491;45.900;6.346;2024-03-06T10:20:38;94030.78;;;22.25;31.05
65359;BME280;52491;45.900;6.346;2024-03-06T10:23:04;94022.81;;;22.25;31.16
65359;BME280;52491;45.900;6.346;2024-03-06T10:25:30;94028.13;;;22.25;30.96
65359;BME280;52491;45.900;6.346;2024-03-06T10:30:23;94038.50;;;22.26;31.07
65359;BME280;52491;45.900;6.346;2024-03-06T10:32:49;94033.19;;;22.26;31.06
65359;BME280;52491;45.900;6.346;2024-03-06T10:37:42;94030.00;;;22.24;30.93
65359;BME280;52491;45.900;6.346;2024-03-06T10:40:14;94028.94;;;22.25;30.98
65359;BME280;52491;45.900;6.346;2024-03-06T10:42:40;94037.47;;;22.27;31.00
65359;BME280;52491;45.900;6.346;2024-03-06T10:45:09;94029.44;;;22.22;31.00
65359;BME280;52491;45.900;6.346;2024-03-06T10:47:39;94036.66;;;22.27;30.97
65359;BME280;52491;45.900;6.346;2024-03-06T10:50:07;94038.50;;;22.26;30.95
65359;BME280;52491;45.900;6.346;2024-03-06T10:52:36;94044.63;;;22.27;30.98
65359;BME280;52491;45.900;6.346;2024-03-06T10:55:04;94040.94;;;22.28;31.04
65359;BME280;52491;45.900;6.346;2024-03-06T10:57:30;94041.97;;;22.27;31.00
65359;BME280;52491;45.900;6.346;2024-03-06T10:59:57;94039.88;;;22.29;30.91
65359;BME280;52491;45.900;6.346;2024-03-06T11:02:24;94041.97;;;22.27;31.17
65359;BME280;52491;45.900;6.346;2024-03-06T11:04:53;94037.69;;;22.26;31.05
65359;BME280;52491;45.900;6.346;2024-03-06T11:07:19;94044.88;;;22.25;30.93
65359;BME280;52491;45.900;6.346;2024-03-06T11:09:45;94049.13;;;22.26;31.06
65359;BME280;52491;45.900;6.346;2024-03-06T11:12:33;94044.06;;;22.25;30.99
65359;BME280;52491;45.900;6.346;2024-03-06T11:15:00;94040.13;;;22.27;30.95
65359;BME280;52491;45.900;6.346;2024-03-06T11:17:26;94038.50;;;22.26;31.04
65359;BME280;52491;45.900;6.346;2024-03-06T11:23:01;94034.00;;;22.27;30.95
65359;BME280;52491;45.900;6.346;2024-03-06T11:28:02;94044.63;;;22.27;30.83
65359;BME280;52491;45.900;6.346;2024-03-06T11:30:28;94044.63;;;22.27;31.01
65359;BME280;52491;45.900;6.346;2024-03-06T11:35:21;94040.94;;;22.28;31.04
65359;BME280;52491;45.900;6.346;2024-03-06T11:37:50;94034.56;;;22.29;31.11
65359;BME280;52491;45.900;6.346;2024-03-06T11:40:23;94028.22;;;22.30;31.36
65359;BME280;52491;45.900;6.346;2024-03-06T11:42:49;94025.22;;;22.26;31.31
65359;BME280;52491;45.900;6.346;2024-03-06T11:45:16;94034.81;;;22.27;31.49
65359;BME280;52491;45.900;6.346;2024-03-06T11:50:10;94034.00;;;22.27;31.63
65359;BME280;52491;45.900;6.346;2024-03-06T11:52:37;94035.03;;;22.26;31.84
65359;BME280;52491;45.900;6.346;2024-03-06T11:55:03;94034.00;;;22.27;31.81
65359;BME280;52491;45.900;6.346;2024-03-06T11:57:29;94033.19;;;22.26;31.75
65359;BME280;52491;45.900;6.346;2024-03-06T11:59:54;94041.72;;;22.28;31.74
65359;BME280;52491;45.900;6.346;2024-03-06T12:02:20;94025.47;;;22.25;31.78
65359;BME280;52491;45.900;6.346;2024-03-06T12:04:47;94035.03;;;22.26;31.81
65359;BME280;52491;45.900;6.346;2024-03-06T12:07:13;94034.81;;;22.27;31.79
65359;BME280;52491;45.900;6.346;2024-03-06T12:09:39;94024.41;;;22.26;31.84
65359;BME280;52491;45.900;6.346;2024-03-06T12:12:06;94027.41;;;22.29;31.59
65359;BME280;52491;45.900;6.346;2024-03-06T12:14:35;94028.69;;;22.27;31.59
65359;BME280;52491;45.900;6.346;2024-03-06T12:17:01;94028.13;;;22.25;31.66
65359;BME280;52491;45.900;6.346;2024-03-06T12:19:36;94023.41;;;22.10;31.09
65359;BME280;52491;45.900;6.346;2024-03-06T12:22:02;94019.03;;;22.04;31.60
65359;BME280;52491;45.900;6.346;2024-03-06T12:24:30;94021.78;;;22.09;31.62
65359;BME280;52491;45.900;6.346;2024-03-06T12:29:23;94017.59;;;22.13;31.93
65359;BME280;52491;45.900;6.346;2024-03-06T12:31:48;94017.34;;;22.15;31.91
65359;BME280;52491;45.900;6.346;2024-03-06T12:34:14;94011.00;;;22.16;32.02
65359;BME280;52491;45.900;6.346;2024-03-06T12:36:42;94011.78;;;22.16;32.13
65359;BME280;52491;45.900;6.346;2024-03-06T12:39:08;94004.06;;;22.15;32.21
65359;BME280;52491;45.900;6.346;2024-03-06T12:41:39;94006.47;;;22.16;32.17
65359;BME280;52491;45.900;6.346;2024-03-06T12:44:05;94001.97;;;22.17;32.19
65359;BME280;52491;45.900;6.346;2024-03-06T12:46:32;94004.44;;;22.18;32.35
65359;BME280;52491;45.900;6.346;2024-03-06T12:48:58;93999.91;;;22.19;32.31
65359;BME280;52491;45.900;6.346;2024-03-06T12:51:24;94004.44;;;22.18;32.43
65359;BME280;52491;45.900;6.346;2024-03-06T12:53:49;94005.22;;;22.19;32.53
65359;BME280;52491;45.900;6.346;2024-03-06T12:56:17;94005.22;;;22.19;32.52
65359;BME280;52491;45.900;6.346;2024-03-06T12:58:42;93992.41;;;22.16;32.57
65359;BME280;52491;45.900;6.346;2024-03-06T13:01:08;93992.41;;;22.16;32.70
65359;BME280;52491;45.900;6.346;2024-03-06T13:03:36;93997.47;;;22.17;32.51
65359;BME280;52491;45.900;6.346;2024-03-06T13:06:03;93992.97;;;22.18;32.66
65359;BME280;52491;45.900;6.346;2024-03-06T13:08:30;94000.13;;;22.17;32.54
65359;BME280;52491;45.900;6.346;2024-03-06T13:10:55;93996.47;;;22.18;32.55
65359;BME280;52491;45.900;6.346;2024-03-06T13:13:22;93993.81;;;22.18;32.67
65359;BME280;52491;45.900;6.346;2024-03-06T13:15:50;93992.97;;;22.18;32.49
65359;BME280;52491;45.900;6.346;2024-03-06T13:18:16;93991.34;;;22.17;32.33